createdAt,value
2022-08-03T00:01:42.696Z,101394.06
2022-08-03T00:04:11.668Z,101399.22
2022-08-03T00:06:39.279Z,101396.50
2022-08-03T00:09:08.518Z,101395.41
2022-08-03T00:11:36.696Z,101396.78
2022-08-03T00:14:05.100Z,101392.44
2022-08-03T00:16:32.548Z,101389.19
2022-08-03T00:19:00.674Z,101385.97
2022-08-03T00:21:28.705Z,101390.28
2022-08-03T00:23:56.242Z,101385.97
2022-08-03T00:26:25.044Z,101384.81
2022-08-03T00:28:52.404Z,101382.13
2022-08-03T00:31:33.930Z,101382.13
2022-08-03T00:34:07.223Z,101384.28
2022-08-03T00:36:34.539Z,101386.16
2022-08-03T00:39:01.946Z,101381.00
2022-08-03T00:41:30.738Z,101379.94
2022-08-03T00:43:58.131Z,101377.22
2022-08-03T00:46:25.427Z,101380.72
2022-08-03T00:48:53.417Z,101380.47
2022-08-03T00:51:22.288Z,101381.00
2022-08-03T00:53:51.005Z,101384.22
2022-08-03T00:56:18.933Z,101380.97
2022-08-03T00:58:47.930Z,101377.19
2022-08-03T01:01:15.727Z,101378.53
2022-08-03T01:03:43.500Z,101378.25
2022-08-03T01:06:19.341Z,101380.34
2022-08-03T01:08:54.887Z,101378.22
2022-08-03T01:11:34.744Z,101378.44
2022-08-03T01:14:19.053Z,101375.97
2022-08-03T01:16:57.563Z,101373.81
2022-08-03T01:19:49.586Z,101370.28
2022-08-03T01:22:52.203Z,101369.19
2022-08-03T01:25:40.291Z,101368.94
2022-08-03T01:28:39.060Z,101372.16
2022-08-03T01:31:11.735Z,101372.69
2022-08-03T01:33:47.075Z,101379.72
2022-08-03T01:36:19.564Z,101368.63
2022-08-03T01:38:54.091Z,101372.66
2022-08-03T01:41:29.403Z,101370.53
2022-08-03T01:44:29.641Z,101379.69
2022-08-03T01:46:55.613Z,101380.75
2022-08-03T01:49:25.689Z,101377.50
2022-08-03T01:52:02.852Z,101371.28
2022-08-03T01:54:36.243Z,101365.59
2022-08-03T01:57:04.792Z,101363.97
2022-08-03T01:59:36.329Z,101371.25
2022-08-03T02:02:19.515Z,101367.69
2022-08-03T02:04:58.233Z,101365.47
2022-08-03T02:07:28.027Z,101364.38
2022-08-03T02:09:58.473Z,101364.88
2022-08-03T02:12:31.357Z,101365.97
2022-08-03T02:15:02.020Z,101363.78
2022-08-03T02:17:39.278Z,101367.56
2022-08-03T02:20:12.404Z,101370.25
2022-08-03T02:22:42.157Z,101364.03
2022-08-03T02:25:12.711Z,101361.56
2022-08-03T02:27:48.927Z,101365.91
2022-08-03T02:30:16.862Z,101358.63
2022-08-03T02:32:54.654Z,101359.97
2022-08-03T02:35:25.939Z,101357.25
2022-08-03T02:37:59.798Z,101357.78
2022-08-03T02:40:30.834Z,101353.47
2022-08-03T02:43:03.832Z,101348.31
2022-08-03T02:45:36.579Z,101353.97
2022-08-03T02:48:07.508Z,101344.78
2022-08-03T02:50:36.930Z,101351.56
2022-08-03T02:53:06.336Z,101344.53
2022-08-03T02:55:36.233Z,101341.28
2022-08-03T02:58:13.533Z,101346.34
2022-08-03T03:00:44.109Z,101350.16
2022-08-03T03:03:14.063Z,101338.81
2022-08-03T03:05:54.804Z,101335.53
2022-08-03T03:08:28.637Z,101342.53
2022-08-03T03:10:59.658Z,101346.81
2022-08-03T03:13:28.935Z,101341.13
2022-08-03T03:16:03.869Z,101347.84
2022-08-03T03:18:34.992Z,101345.41
2022-08-03T03:21:04.558Z,101352.13
2022-08-03T03:23:35.331Z,101352.13
2022-08-03T03:26:03.793Z,101352.13
2022-08-03T03:28:32.404Z,101351.06
2022-08-03T03:31:00.976Z,101362.91
2022-08-03T03:33:28.789Z,101360.50
2022-08-03T03:35:58.898Z,101359.91
2022-08-03T03:38:26.833Z,101356.91
2022-08-03T03:40:55.022Z,101355.78
2022-08-03T03:43:24.940Z,101353.88
2022-08-03T03:45:53.765Z,101355.75
2022-08-03T03:48:21.560Z,101350.88
2022-08-03T03:50:50.694Z,101351.63
2022-08-03T03:53:19.893Z,101353.50
2022-08-03T03:55:59.111Z,101350.56
2022-08-03T03:58:32.192Z,101356.00
2022-08-03T04:01:00.398Z,101350.59
2022-08-03T04:03:28.079Z,101348.72
2022-08-03T04:06:14.137Z,101347.13
2022-08-03T04:09:01.198Z,101346.53
2022-08-03T04:11:38.377Z,101352.97
2022-08-03T04:14:11.042Z,101350.25
2022-08-03T04:16:45.102Z,101339.75
2022-08-03T04:19:23.162Z,101340.00
2022-08-03T04:21:57.675Z,101338.38
2022-08-03T04:24:39.139Z,101341.03
2022-08-03T04:27:11.511Z,101338.63
2022-08-03T04:29:48.514Z,101334.53
2022-08-03T04:32:18.192Z,101343.72
2022-08-03T04:34:46.517Z,101350.72
2022-08-03T04:37:26.457Z,101352.84
2022-08-03T04:40:01.843Z,101343.72
2022-08-03T04:42:33.338Z,101347.47
2022-08-03T04:45:02.755Z,101346.97
2022-08-03T04:47:33.859Z,101349.09
2022-08-03T04:50:02.850Z,101355.06
2022-08-03T04:52:31.401Z,101351.31
2022-08-03T04:55:00.105Z,101354.78
2022-08-03T04:57:27.489Z,101351.84
2022-08-03T05:00:02.012Z,101349.72
2022-08-03T05:02:31.270Z,101347.56
2022-08-03T05:04:59.474Z,101353.50
2022-08-03T05:07:35.643Z,101361.03
2022-08-03T05:10:15.194Z,101358.34
2022-08-03T05:12:45.873Z,101357.25
2022-08-03T05:15:13.879Z,101357.25
2022-08-03T05:17:41.376Z,101361.31
2022-08-03T05:20:11.030Z,101360.00
2022-08-03T05:22:38.517Z,101359.47
2022-08-03T05:25:08.199Z,101364.94
2022-08-03T05:27:36.146Z,101366.38
2022-08-03T05:30:31.468Z,101364.03
2022-08-03T05:32:51.798Z,101357.06
2022-08-03T05:35:56.194Z,101368.69
2022-08-03T05:38:06.946Z,101362.78
2022-08-03T05:40:37.990Z,101369.56
2022-08-03T05:43:06.934Z,101371.22
2022-08-03T05:45:34.355Z,101374.47
2022-08-03T05:48:01.672Z,101370.44
2022-08-03T05:50:29.035Z,101370.50
2022-08-03T05:52:57.924Z,101369.75
2022-08-03T05:55:25.842Z,101364.72
2022-08-03T05:57:55.182Z,101360.16
2022-08-03T06:00:24.268Z,101363.44
2022-08-03T06:02:53.145Z,101359.13
2022-08-03T06:05:20.729Z,101360.81
2022-08-03T06:07:48.117Z,101370.50
2022-08-03T06:10:35.942Z,101370.84
2022-08-03T06:13:04.489Z,101361.13
2022-08-03T06:15:33.415Z,101363.03
2022-08-03T06:18:02.221Z,101369.31
2022-08-03T06:20:30.290Z,101368.00
2022-08-03T06:23:01.065Z,101363.97
2022-08-03T06:25:29.085Z,101365.03
2022-08-03T06:27:56.922Z,101361.56
2022-08-03T06:30:26.180Z,101365.34
2022-08-03T06:32:53.596Z,101373.47
2022-08-03T06:35:21.148Z,101371.31
2022-08-03T06:37:50.967Z,101369.16
2022-08-03T06:40:24.488Z,101367.00
2022-08-03T06:42:52.017Z,101377.28
2022-08-03T06:45:19.552Z,101378.88
2022-08-03T06:47:59.490Z,101382.13
2022-08-03T06:50:26.987Z,101388.59
2022-08-03T06:52:54.390Z,101382.13
2022-08-03T06:55:21.958Z,101385.38
2022-08-03T06:57:49.482Z,101389.16
2022-08-03T07:00:17.498Z,101383.72
2022-08-03T07:02:45.040Z,101390.19
2022-08-03T07:05:14.485Z,101387.97
2022-08-03T07:07:42.187Z,101379.81
2022-08-03T07:10:13.976Z,101383.56
2022-08-03T07:12:52.715Z,101385.63
2022-08-03T07:15:54.433Z,101390.47
2022-08-03T07:18:11.624Z,101388.22
2022-08-03T07:20:40.938Z,101388.72
2022-08-03T07:23:25.886Z,101390.06
2022-08-03T07:25:53.357Z,101393.97
2022-08-03T07:28:21.057Z,101396.69
2022-08-03T07:30:48.535Z,101395.09
2022-08-03T07:33:15.895Z,101391.31
2022-08-03T07:35:44.631Z,101392.38
2022-08-03T07:38:11.975Z,101408.50
2022-08-03T07:40:44.429Z,101403.09
2022-08-03T07:43:13.381Z,101406.25
2022-08-03T07:45:40.766Z,101402.06
2022-08-03T07:48:12.095Z,101404.28
2022-08-03T07:50:40.663Z,101406.50
2022-08-03T07:53:09.429Z,101399.81
2022-08-03T07:55:36.882Z,101403.44
2022-08-03T07:58:06.904Z,101409.03
2022-08-03T08:00:34.808Z,101411.41
2022-08-03T08:03:02.706Z,101397.16
2022-08-03T08:05:31.894Z,101398.38
2022-08-03T08:07:59.630Z,101401.88
2022-08-03T08:10:29.470Z,101404.81
2022-08-03T08:12:57.667Z,101407.22
2022-08-03T08:15:25.726Z,101408.19
2022-08-03T08:17:56.434Z,101417.66
2022-08-03T08:20:31.605Z,101408.66
2022-08-03T08:23:02.148Z,101402.03
2022-08-03T08:25:33.071Z,101399.28
2022-08-03T08:28:29.061Z,101397.25
2022-08-03T08:30:51.968Z,101395.00
2022-08-03T08:33:22.716Z,101400.34
2022-08-03T08:35:53.501Z,101403.06
2022-08-03T08:38:21.868Z,101396.53
2022-08-03T08:40:51.230Z,101405.34
2022-08-03T08:43:18.834Z,101390.03
2022-08-03T08:45:49.029Z,101395.94
2022-08-03T08:48:23.394Z,101403.25
2022-08-03T08:50:54.496Z,101391.31
2022-08-03T08:53:27.341Z,101386.09
2022-08-03T08:56:02.237Z,101397.50
2022-08-03T08:58:34.955Z,101395.09
2022-08-03T09:01:02.525Z,101390.41
2022-08-03T09:03:31.075Z,101397.59
2022-08-03T09:06:00.989Z,101394.56
2022-08-03T09:08:30.443Z,101390.63
2022-08-03T09:10:59.628Z,101392.41
2022-08-03T09:13:27.455Z,101392.72
2022-08-03T09:16:13.722Z,101401.09
2022-08-03T09:18:43.043Z,101388.81
2022-08-03T09:21:35.723Z,101388.44
2022-08-03T09:24:10.300Z,101384.94
2022-08-03T09:26:52.155Z,101391.31
2022-08-03T09:29:22.868Z,101398.88
2022-08-03T09:32:00.851Z,101392.44
2022-08-03T09:34:28.846Z,101389.41
2022-08-03T09:37:02.354Z,101390.31
2022-08-03T09:39:41.015Z,101391.94
2022-08-03T09:42:14.710Z,101391.25
2022-08-03T09:44:44.533Z,101388.88
2022-08-03T09:47:16.862Z,101396.22
2022-08-03T09:50:01.914Z,101382.22
2022-08-03T09:52:50.180Z,101380.69
2022-08-03T09:56:32.737Z,101377.72
2022-08-03T09:58:10.430Z,101372.63
2022-08-03T10:00:56.388Z,101363.31
2022-08-03T10:03:25.917Z,101375.53
2022-08-03T10:05:59.062Z,101375.31
2022-08-03T10:08:27.430Z,101372.25
2022-08-03T10:10:55.130Z,101364.03
2022-08-03T10:13:24.384Z,101365.94
2022-08-03T10:16:22.646Z,101368.63
2022-08-03T10:18:39.313Z,101367.19
2022-08-03T10:21:13.697Z,101363.78
2022-08-03T10:23:42.690Z,101375.41
2022-08-03T10:26:16.539Z,101361.88
2022-08-03T10:28:53.181Z,101373.00
2022-08-03T10:31:24.236Z,101369.84
2022-08-03T10:33:59.122Z,101368.66
2022-08-03T10:36:31.837Z,101362.31
2022-08-03T10:39:02.846Z,101353.13
2022-08-03T10:41:46.570Z,101374.53
2022-08-03T10:44:21.284Z,101380.19
2022-08-03T10:46:52.828Z,101363.53
2022-08-03T10:49:33.917Z,101355.44
2022-08-03T10:52:13.831Z,101366.91
2022-08-03T10:55:11.675Z,101363.53
2022-08-03T10:57:58.557Z,101359.41
2022-08-03T11:00:30.500Z,101366.28
2022-08-03T11:03:14.038Z,101356.09
2022-08-03T11:05:43.450Z,101361.66
2022-08-03T11:08:32.560Z,101357.16
2022-08-03T11:11:28.837Z,101342.72
2022-08-03T11:14:05.247Z,101349.47
2022-08-03T11:16:41.634Z,101353.31
2022-08-03T11:19:12.514Z,101352.53
2022-08-03T11:21:58.290Z,101349.88
2022-08-03T11:24:57.826Z,101340.50
2022-08-03T11:27:28.508Z,101344.63
2022-08-03T11:30:02.194Z,101341.06
2022-08-03T11:32:57.094Z,101342.31
2022-08-03T11:35:30.250Z,101341.34
2022-08-03T11:38:12.678Z,101344.25
2022-08-03T11:40:46.282Z,101339.03
2022-08-03T11:43:45.363Z,101326.69
2022-08-03T11:46:29.531Z,101332.47
2022-08-03T11:49:10.922Z,101327.50
2022-08-03T11:51:40.102Z,101322.34
2022-08-03T11:54:08.244Z,101319.16
2022-08-03T11:56:46.747Z,101326.84
2022-08-03T11:59:18.262Z,101338.50
2022-08-03T12:01:48.439Z,101337.84
2022-08-03T12:04:17.452Z,101329.59
2022-08-03T12:06:59.420Z,101333.41
2022-08-03T12:09:26.949Z,101328.00
2022-08-03T12:12:00.182Z,101330.16
2022-08-03T12:14:48.519Z,101331.22
2022-08-03T12:17:19.759Z,101329.25
2022-08-03T12:19:48.886Z,101339.94
2022-08-03T12:22:17.055Z,101334.69
2022-08-03T12:24:46.818Z,101327.00
2022-08-03T12:27:24.318Z,101330.16
2022-08-03T12:29:58.412Z,101323.75
2022-08-03T12:32:28.600Z,101317.91
2022-08-03T12:35:04.483Z,101322.19
2022-08-03T12:37:32.525Z,101312.50
2022-08-03T12:40:10.400Z,101314.66
2022-08-03T12:42:40.773Z,101314.69
2022-08-03T12:45:22.979Z,101324.13
2022-08-03T12:47:55.911Z,101315.00
2022-08-03T12:50:33.652Z,101313.22
2022-08-03T12:53:05.195Z,101307.25
2022-08-03T12:55:57.867Z,101319.13
2022-08-03T12:58:36.401Z,101319.50
2022-08-03T13:01:09.746Z,101315.28
2022-08-03T13:03:45.648Z,101306.84
2022-08-03T13:06:17.388Z,101305.25
2022-08-03T13:08:47.850Z,101310.31
2022-08-03T13:11:55.418Z,101307.22
2022-08-03T13:14:16.657Z,101316.00
2022-08-03T13:16:48.249Z,101308.34
2022-08-03T13:19:16.129Z,101313.81
2022-08-03T13:22:03.721Z,101303.84
2022-08-03T13:24:32.994Z,101304.75
2022-08-03T13:27:00.890Z,101306.13
2022-08-03T13:29:48.274Z,101312.31
2022-08-03T13:32:15.932Z,101306.09
2022-08-03T13:34:43.615Z,101305.44
2022-08-03T13:37:12.895Z,101298.81
2022-08-03T13:39:57.915Z,101300.63
2022-08-03T13:42:29.643Z,101296.16
2022-08-03T13:44:57.135Z,101288.59
2022-08-03T13:47:25.010Z,101299.97
2022-08-03T13:49:59.525Z,101286.03
2022-08-03T13:52:35.543Z,101290.84
2022-08-03T13:55:05.201Z,101284.16
2022-08-03T13:58:02.669Z,101289.16
2022-08-03T14:00:26.944Z,101276.75
2022-08-03T14:03:05.094Z,101287.44
2022-08-03T14:05:33.872Z,101283.34
2022-08-03T14:08:05.355Z,101286.25
2022-08-03T14:10:35.398Z,101285.84
2022-08-03T14:13:03.412Z,101280.34
2022-08-03T14:15:31.414Z,101273.34
2022-08-03T14:17:59.106Z,101279.88
2022-08-03T14:20:37.828Z,101275.78
2022-08-03T14:23:16.158Z,101273.72
2022-08-03T14:25:50.406Z,101275.63
2022-08-03T14:28:22.948Z,101271.75
2022-08-03T14:30:51.166Z,101273.84
2022-08-03T14:33:19.226Z,101276.13
2022-08-03T14:35:46.851Z,101271.09
2022-08-03T14:38:16.095Z,101276.81
2022-08-03T14:40:43.689Z,101274.06
2022-08-03T14:43:11.146Z,101279.59
2022-08-03T14:45:39.225Z,101267.06
2022-08-03T14:50:29.742Z,101273.59
2022-08-03T14:50:55.430Z,101274.09
2022-08-03T14:53:24.522Z,101269.25
2022-08-03T14:55:53.432Z,101267.41
2022-08-03T14:58:22.315Z,101267.41
2022-08-03T15:00:51.521Z,101264.66
2022-08-03T15:03:25.359Z,101252.63
2022-08-03T15:05:54.720Z,101249.09
2022-08-03T15:08:26.165Z,101255.50
2022-08-03T15:10:55.088Z,101253.22
2022-08-03T15:13:22.902Z,101259.41
2022-08-03T15:15:51.707Z,101258.94
2022-08-03T15:18:20.182Z,101260.06
2022-08-03T15:20:49.556Z,101260.94
2022-08-03T15:23:18.447Z,101263.25
2022-08-03T15:26:03.829Z,101260.28
2022-08-03T15:28:35.740Z,101259.06
2022-08-03T15:31:05.899Z,101255.97
2022-08-03T15:33:33.341Z,101253.69
2022-08-03T15:36:03.644Z,101253.91
2022-08-03T15:38:30.999Z,101247.25
2022-08-03T15:40:59.869Z,101244.06
2022-08-03T15:43:27.264Z,101246.81
2022-08-03T15:46:19.527Z,101247.94
2022-08-03T15:48:42.340Z,101245.88
2022-08-03T15:51:10.490Z,101248.41
2022-08-03T15:53:38.754Z,101240.88
2022-08-03T15:56:13.272Z,101236.50
2022-08-03T15:59:03.539Z,101232.94
2022-08-03T16:01:31.675Z,101246.38
2022-08-03T16:03:59.104Z,101238.56
2022-08-03T16:06:29.894Z,101241.78
2022-08-03T16:09:24.153Z,101242.00
2022-08-03T16:11:55.751Z,101241.53
2022-08-03T16:14:32.561Z,101242.56
2022-08-03T16:17:04.453Z,101238.00
2022-08-03T16:19:31.901Z,101236.38
2022-08-03T16:21:59.386Z,101245.88
2022-08-03T16:24:28.486Z,101236.00
2022-08-03T16:26:57.621Z,101241.75
2022-08-03T16:29:28.355Z,101241.94
2022-08-03T16:31:55.739Z,101240.69
2022-08-03T16:34:23.305Z,101238.94
2022-08-03T16:36:51.275Z,101231.78
2022-08-03T16:39:18.696Z,101228.88
2022-08-03T16:41:53.923Z,101220.97
2022-08-03T16:44:31.342Z,101230.91
2022-08-03T16:46:59.845Z,101233.50
2022-08-03T16:49:54.593Z,101235.47
2022-08-03T16:52:16.747Z,101238.59
2022-08-03T16:54:52.751Z,101228.94
2022-08-03T16:57:56.307Z,101226.41
2022-08-03T17:00:32.880Z,101235.66
2022-08-03T17:03:18.684Z,101234.78
2022-08-03T17:05:52.383Z,101236.97
2022-08-03T17:08:26.440Z,101227.69
2022-08-03T17:10:56.305Z,101230.63
2022-08-03T17:13:39.258Z,101237.03
2022-08-03T17:16:11.953Z,101239.47
2022-08-03T17:18:49.269Z,101236.00
2022-08-03T17:21:25.616Z,101233.50
2022-08-03T17:24:12.245Z,101238.09
2022-08-03T17:26:43.600Z,101229.97
2022-08-03T17:29:15.263Z,101229.41
2022-08-03T17:31:48.679Z,101225.38
2022-08-03T17:34:18.930Z,101236.63
2022-08-03T17:37:03.885Z,101240.81
2022-08-03T17:39:57.067Z,101227.75
2022-08-03T17:42:30.750Z,101232.09
2022-08-03T17:45:02.247Z,101239.38
2022-08-03T17:47:42.248Z,101230.94
2022-08-03T17:50:24.518Z,101240.59
2022-08-03T17:53:06.858Z,101239.44
2022-08-03T17:55:55.496Z,101244.00
2022-08-03T17:58:52.827Z,101242.75
2022-08-03T18:02:00.018Z,101245.84
2022-08-03T18:04:42.508Z,101240.19
2022-08-03T18:07:15.153Z,101245.03
2022-08-03T18:10:04.142Z,101247.31
2022-08-03T18:12:47.397Z,101243.94
2022-08-03T18:15:28.691Z,101253.34
2022-08-03T18:18:03.463Z,101251.59
2022-08-03T18:20:42.063Z,101257.75
2022-08-03T18:23:36.387Z,101255.34
2022-08-03T18:26:02.520Z,101252.09
2022-08-03T18:28:34.722Z,101254.72
2022-08-03T18:31:05.614Z,101251.06
2022-08-03T18:34:16.746Z,101264.97
2022-08-03T18:36:30.082Z,101268.97
2022-08-03T18:39:00.014Z,101254.69
2022-08-03T18:41:33.419Z,101261.13
2022-08-03T18:44:08.283Z,101269.06
2022-08-03T18:47:16.233Z,101270.31
2022-08-03T18:49:58.097Z,101279.22
2022-08-03T18:52:37.491Z,101286.47
2022-08-03T18:55:20.787Z,101279.94
2022-08-03T18:58:01.757Z,101291.53
2022-08-03T19:00:54.063Z,101295.75
2022-08-03T19:03:24.898Z,101302.22
2022-08-03T19:06:19.396Z,101309.88
2022-08-03T19:08:55.861Z,101320.94
2022-08-03T19:12:14.475Z,101320.84
2022-08-03T19:14:28.411Z,101319.81
2022-08-03T19:17:07.303Z,101324.22
2022-08-03T19:19:43.970Z,101331.19
2022-08-03T19:22:16.273Z,101342.00
2022-08-03T19:24:47.094Z,101340.91
2022-08-03T19:27:15.978Z,101339.63
2022-08-03T19:29:58.719Z,101341.59
2022-08-03T19:32:29.488Z,101346.56
2022-08-03T19:34:59.937Z,101348.50
2022-08-03T19:37:38.154Z,101344.47
2022-08-03T19:40:12.412Z,101338.03
2022-08-03T19:42:45.748Z,101348.66
2022-08-03T19:46:04.797Z,101347.50
2022-08-03T19:48:17.672Z,101344.66
2022-08-03T19:50:54.238Z,101348.38
2022-08-03T19:53:25.055Z,101350.97
2022-08-03T19:56:07.118Z,101351.47
2022-08-03T19:58:35.597Z,101358.66
2022-08-03T20:01:21.136Z,101367.81
2022-08-03T20:03:50.706Z,101358.97
2022-08-03T20:06:22.256Z,101366.22
2022-08-03T20:11:45.113Z,101373.31
2022-08-03T20:14:20.688Z,101367.91
2022-08-03T20:16:54.351Z,101375.06
2022-08-03T20:19:22.507Z,101366.19
2022-08-03T20:21:53.491Z,101373.09
2022-08-03T20:24:28.117Z,101371.31
2022-08-03T20:27:01.356Z,101376.31
2022-08-03T20:30:05.107Z,101385.91
2022-08-03T20:32:24.790Z,101387.09
2022-08-03T20:34:53.282Z,101379.78
2022-08-03T20:37:20.868Z,101384.44
2022-08-03T20:39:49.779Z,101390.75
2022-08-03T20:42:21.269Z,101388.41
2022-08-03T20:45:05.243Z,101389.81
2022-08-03T20:47:35.943Z,101390.19
2022-08-03T20:50:07.525Z,101388.28
2022-08-03T20:52:49.282Z,101388.06
2022-08-03T20:55:18.833Z,101397.09
2022-08-03T20:58:07.704Z,101389.81
2022-08-03T21:00:35.344Z,101384.94
2022-08-03T21:03:02.803Z,101387.94
2022-08-03T21:05:51.473Z,101386.59
2022-08-03T21:08:26.078Z,101393.16
2022-08-03T21:10:57.667Z,101390.44
2022-08-03T21:13:03.563Z,101368.81
2022-08-03T21:13:43.251Z,101390.19
2022-08-03T21:16:15.071Z,101388.81
2022-08-03T21:18:48.955Z,101383.97
2022-08-03T21:21:20.475Z,101388.34
2022-08-03T21:23:53.274Z,101388.91
2022-08-03T21:26:25.365Z,101399.75
2022-08-03T21:28:56.500Z,101389.47
2022-08-03T21:31:26.742Z,101386.25
2022-08-03T21:33:56.555Z,101379.47
2022-08-03T21:36:28.218Z,101384.09
2022-08-03T21:38:57.804Z,101381.38
2022-08-03T21:41:27.075Z,101385.19
2022-08-03T21:43:56.745Z,101392.00
2022-08-03T21:46:27.010Z,101386.31
2022-08-03T21:50:05.406Z,101388.81
2022-08-03T21:51:52.205Z,101390.75
2022-08-03T21:54:21.292Z,101389.13
2022-08-03T21:56:54.894Z,101383.16
2022-08-03T21:59:24.980Z,101380.19
2022-08-03T22:01:55.499Z,101385.88
2022-08-03T22:04:55.047Z,101386.72
2022-08-03T22:07:16.610Z,101385.66
2022-08-03T22:09:50.140Z,101381.63
2022-08-03T22:12:23.696Z,101374.00
2022-08-03T22:15:00.443Z,101374.03
2022-08-03T22:17:54.820Z,101368.94
2022-08-03T22:20:20.590Z,101369.25
2022-08-03T22:22:55.193Z,101375.78
2022-08-03T22:25:30.554Z,101376.41
2022-08-03T22:28:00.352Z,101377.25
2022-08-03T22:30:29.786Z,101375.09
2022-08-03T22:32:59.126Z,101375.38
2022-08-03T22:35:28.135Z,101377.56
2022-08-03T22:37:58.892Z,101367.28
2022-08-03T22:40:27.824Z,101370.25
2022-08-03T22:42:56.690Z,101370.00
2022-08-03T22:45:45.802Z,101358.91
2022-08-03T22:48:17.414Z,101360.28
2022-08-03T22:50:46.679Z,101371.16
2022-08-03T22:53:19.434Z,101372.75
2022-08-03T22:55:48.710Z,101369.00
2022-08-03T22:58:16.493Z,101366.03
2022-08-03T23:00:53.793Z,101359.00
2022-08-03T23:04:00.129Z,101360.38
2022-08-03T23:06:19.643Z,101362.84
2022-08-03T23:08:49.764Z,101373.94
2022-08-03T23:11:21.630Z,101356.34
2022-08-03T23:13:55.405Z,101364.22
2022-08-03T23:16:28.754Z,101358.28
2022-08-03T23:18:59.622Z,101361.53
2022-08-03T23:21:59.886Z,101365.31
2022-08-03T23:24:24.572Z,101362.63
2022-08-03T23:26:58.905Z,101362.63
2022-08-03T23:29:29.283Z,101363.72
2022-08-03T23:31:58.518Z,101359.38
2022-08-03T23:34:47.068Z,101357.75
2022-08-03T23:37:15.557Z,101351.81
2022-08-03T23:39:47.135Z,101355.59
2022-08-03T23:42:19.598Z,101347.75
2022-08-03T23:44:52.937Z,101345.28
2022-08-03T23:47:20.540Z,101346.38
2022-08-03T23:49:50.268Z,101344.75
2022-08-03T23:52:29.859Z,101347.47
2022-08-03T23:55:16.300Z,101343.97
2022-08-03T23:58:01.662Z,101343.69
